createdAt,value
2018-09-12T00:00:26.965Z,23.00
2018-09-12T00:02:54.914Z,23.00
2018-09-12T00:05:22.856Z,23.00
2018-09-12T00:07:50.813Z,23.00
2018-09-12T00:10:19.041Z,23.00
2018-09-12T00:12:47.008Z,23.00
2018-09-12T00:15:14.985Z,23.00
2018-09-12T00:17:43.445Z,23.00
2018-09-12T00:20:11.499Z,23.00
2018-09-12T00:22:39.430Z,22.90
2018-09-12T00:25:07.435Z,22.90
2018-09-12T00:27:35.416Z,22.90
2018-09-12T00:30:03.419Z,22.90
2018-09-12T00:32:31.374Z,22.90
2018-09-12T00:34:59.328Z,22.90
2018-09-12T00:37:28.011Z,22.80
2018-09-12T00:39:55.995Z,22.80
2018-09-12T00:42:23.934Z,22.80
2018-09-12T00:44:51.912Z,22.80
2018-09-12T00:47:19.884Z,22.80
2018-09-12T00:49:48.090Z,22.70
2018-09-12T00:52:16.890Z,22.70
2018-09-12T00:54:44.915Z,22.70
2018-09-12T00:57:12.892Z,22.70
2018-09-12T00:59:40.820Z,22.70
2018-09-12T01:02:08.820Z,22.60
2018-09-12T01:04:36.776Z,22.60
2018-09-12T01:07:04.717Z,22.60
2018-09-12T01:09:32.958Z,22.60
2018-09-12T01:12:00.920Z,22.60
2018-09-12T01:14:32.696Z,22.50
2018-09-12T01:17:00.747Z,22.50
2018-09-12T01:19:29.320Z,22.50
2018-09-12T01:21:57.303Z,22.40
2018-09-12T01:24:25.242Z,22.40
2018-09-12T01:26:53.212Z,22.40
2018-09-12T01:29:23.123Z,22.40
2018-09-12T01:31:51.075Z,22.40
2018-09-12T01:34:19.072Z,22.30
2018-09-12T01:36:47.318Z,22.30
2018-09-12T01:39:15.290Z,22.30
2018-09-12T01:41:43.271Z,22.30
2018-09-12T01:44:11.510Z,22.30
2018-09-12T01:46:39.468Z,22.30
2018-09-12T01:49:07.440Z,22.30
2018-09-12T01:51:35.410Z,22.30
2018-09-12T01:54:03.348Z,22.30
2018-09-12T01:56:35.201Z,22.20
2018-09-12T01:59:03.144Z,22.20
2018-09-12T02:01:31.092Z,22.20
2018-09-12T02:04:00.652Z,22.20
2018-09-12T02:06:29.132Z,22.20
2018-09-12T02:08:57.246Z,22.20
2018-09-12T02:11:25.316Z,22.10
2018-09-12T02:13:53.338Z,22.10
2018-09-12T02:16:21.272Z,22.10
2018-09-12T02:18:49.229Z,22.10
2018-09-12T02:21:17.167Z,22.10
2018-09-12T02:23:45.376Z,22.10
2018-09-12T02:26:13.322Z,22.10
2018-09-12T02:28:41.261Z,22.10
2018-09-12T02:31:09.236Z,22.00
2018-09-12T02:33:37.172Z,22.00
2018-09-12T02:36:10.654Z,22.00
2018-09-12T02:38:38.628Z,22.00
2018-09-12T02:41:06.588Z,22.00
2018-09-12T02:43:34.544Z,22.00
2018-09-12T02:46:03.755Z,22.00
2018-09-12T02:48:31.717Z,22.00
2018-09-12T02:50:59.660Z,22.00
2018-09-12T02:53:27.603Z,22.00
2018-09-12T02:55:55.565Z,22.00
2018-09-12T02:58:23.791Z,21.90
2018-09-12T03:00:51.742Z,21.90
2018-09-12T03:03:19.755Z,21.90
2018-09-12T03:05:47.724Z,21.90
2018-09-12T03:08:15.676Z,21.90
2018-09-12T03:10:43.633Z,21.90
2018-09-12T03:13:11.832Z,21.90
2018-09-12T03:15:39.776Z,21.90
2018-09-12T03:18:07.750Z,21.90
2018-09-12T03:20:35.812Z,21.90
2018-09-12T03:23:03.646Z,21.90
2018-09-12T03:25:31.603Z,21.90
2018-09-12T03:27:59.547Z,21.90
2018-09-12T03:30:27.532Z,21.80
2018-09-12T03:32:55.544Z,21.80
2018-09-12T03:35:23.484Z,21.80
2018-09-12T03:37:51.468Z,21.80
2018-09-12T03:40:19.420Z,21.80
2018-09-12T03:42:47.390Z,21.80
2018-09-12T03:45:15.509Z,21.70
2018-09-12T03:47:43.457Z,21.70
2018-09-12T03:50:11.419Z,21.70
2018-09-12T03:52:39.524Z,21.70
2018-09-12T03:55:07.460Z,21.60
2018-09-12T03:57:35.419Z,21.60
2018-09-12T04:00:03.385Z,21.60
2018-09-12T04:02:31.390Z,21.60
2018-09-12T04:04:59.384Z,21.60
2018-09-12T04:07:27.316Z,21.60
2018-09-12T04:09:55.292Z,21.60
2018-09-12T04:12:23.241Z,21.50
2018-09-12T04:14:51.205Z,21.60
2018-09-12T04:17:19.151Z,21.50
2018-09-12T04:19:47.102Z,21.50
2018-09-12T04:22:15.063Z,21.50
2018-09-12T04:24:43.035Z,21.50
2018-09-12T04:27:11.084Z,21.50
2018-09-12T04:29:39.068Z,21.40
2018-09-12T04:32:07.010Z,21.40
2018-09-12T04:34:34.963Z,21.40
2018-09-12T04:37:02.978Z,21.30
2018-09-12T04:39:30.920Z,21.40
2018-09-12T04:41:58.892Z,21.30
2018-09-12T04:44:26.913Z,21.30
2018-09-12T04:46:54.882Z,21.20
2018-09-12T04:49:22.854Z,21.30
2018-09-12T04:51:50.817Z,21.30
2018-09-12T04:54:18.870Z,21.30
2018-09-12T04:56:46.818Z,21.30
2018-09-12T04:59:14.870Z,21.30
2018-09-12T05:01:42.873Z,21.20
2018-09-12T05:04:10.927Z,21.20
2018-09-12T05:06:38.900Z,21.30
2018-09-12T05:09:08.003Z,21.30
2018-09-12T05:11:35.923Z,21.30
2018-09-12T05:14:03.907Z,21.30
2018-09-12T05:16:32.028Z,21.30
2018-09-12T05:19:00.002Z,21.30
2018-09-12T05:21:28.076Z,21.30
2018-09-12T05:23:56.192Z,21.30
2018-09-12T05:26:24.287Z,21.30
2018-09-12T05:28:52.363Z,21.40
2018-09-12T05:31:20.376Z,21.40
2018-09-12T05:33:48.344Z,21.40
2018-09-12T05:36:16.395Z,21.40
2018-09-12T05:38:44.373Z,21.40
2018-09-12T05:41:12.401Z,21.40
2018-09-12T05:43:40.388Z,21.40
2018-09-12T05:46:08.362Z,21.40
2018-09-12T05:48:36.535Z,21.40
2018-09-12T05:51:04.545Z,21.40
2018-09-12T05:53:32.501Z,21.40
2018-09-12T05:56:00.464Z,21.40
2018-09-12T05:58:28.444Z,21.40
2018-09-12T06:00:56.415Z,21.40
2018-09-12T06:03:24.396Z,21.40
2018-09-12T06:05:52.379Z,21.50
2018-09-12T06:08:20.388Z,21.50
2018-09-12T06:10:48.582Z,21.50
2018-09-12T06:13:16.531Z,21.50
2018-09-12T06:15:44.513Z,21.50
2018-09-12T06:18:12.524Z,21.50
2018-09-12T06:20:40.469Z,21.50
2018-09-12T06:23:08.544Z,21.50
2018-09-12T06:25:36.503Z,21.50
2018-09-12T06:28:04.488Z,21.60
2018-09-12T06:30:32.481Z,21.60
2018-09-12T06:33:00.607Z,21.60
2018-09-12T06:35:28.557Z,21.70
2018-09-12T06:37:56.542Z,21.70
2018-09-12T06:40:24.488Z,21.70
2018-09-12T06:42:52.542Z,21.70
2018-09-12T06:45:20.490Z,21.70
2018-09-12T06:47:48.483Z,21.80
2018-09-12T06:50:16.446Z,21.80
2018-09-12T06:52:44.397Z,21.80
2018-09-12T06:55:12.407Z,21.90
2018-09-12T06:57:40.926Z,21.90
2018-09-12T07:00:09.220Z,21.90
2018-09-12T07:02:37.194Z,21.90
2018-09-12T07:05:05.187Z,22.00
2018-09-12T07:07:33.212Z,22.00
2018-09-12T07:10:01.098Z,22.00
2018-09-12T07:12:29.703Z,22.10
2018-09-12T07:14:57.709Z,22.10
2018-09-12T07:17:25.687Z,22.10
2018-09-12T07:19:53.685Z,22.20
2018-09-12T07:22:21.757Z,22.20
2018-09-12T07:24:49.868Z,22.20
2018-09-12T07:27:17.724Z,22.20
2018-09-12T07:29:45.699Z,22.20
2018-09-12T07:32:13.911Z,22.30
2018-09-12T07:34:41.890Z,22.30
2018-09-12T07:37:09.854Z,22.30
2018-09-12T07:39:37.826Z,22.40
2018-09-12T07:42:05.764Z,22.40
2018-09-12T07:44:33.764Z,22.50
2018-09-12T07:47:01.748Z,22.40
2018-09-12T07:49:29.719Z,22.50
2018-09-12T07:51:57.718Z,22.50
2018-09-12T07:54:25.716Z,22.50
2018-09-12T07:56:53.683Z,22.50
2018-09-12T07:59:21.635Z,22.60
2018-09-12T08:01:49.620Z,22.60
2018-09-12T08:04:17.696Z,22.60
2018-09-12T08:06:45.929Z,22.70
2018-09-12T08:09:14.095Z,22.70
2018-09-12T08:11:42.585Z,22.80
2018-09-12T08:14:10.632Z,22.90
2018-09-12T08:16:38.656Z,22.90
2018-09-12T08:19:06.851Z,23.00
2018-09-12T08:21:34.695Z,23.00
2018-09-12T08:24:02.757Z,23.10
2018-09-12T08:26:30.750Z,23.20
2018-09-12T08:28:58.802Z,23.30
2018-09-12T08:31:28.062Z,23.40
2018-09-12T08:33:56.032Z,23.50
2018-09-12T08:36:24.027Z,23.50
2018-09-12T08:38:52.022Z,23.60
2018-09-12T08:41:19.958Z,23.60
2018-09-12T08:43:47.904Z,23.60
2018-09-12T08:46:15.941Z,23.70
2018-09-12T08:48:43.913Z,23.70
2018-09-12T08:51:11.890Z,23.70
2018-09-12T08:53:39.814Z,23.80
2018-09-12T08:56:07.787Z,23.80
2018-09-12T08:58:35.776Z,23.70
2018-09-12T09:01:03.759Z,23.70
2018-09-12T09:03:32.009Z,23.70
2018-09-12T09:05:59.971Z,23.80
2018-09-12T09:08:27.919Z,23.80
2018-09-12T09:10:55.891Z,23.80
2018-09-12T09:13:23.844Z,23.90
2018-09-12T09:15:51.895Z,23.90
2018-09-12T09:20:53.020Z,24.10
2018-09-12T09:23:21.177Z,24.10
2018-09-12T09:25:49.144Z,24.20
2018-09-12T09:28:17.097Z,24.20
2018-09-12T09:30:45.067Z,24.30
2018-09-12T09:33:13.239Z,24.30
2018-09-12T09:35:41.348Z,24.30
2018-09-12T09:38:09.179Z,24.40
2018-09-12T09:40:37.153Z,24.50
2018-09-12T09:43:05.112Z,24.50
2018-09-12T09:45:33.130Z,24.50
2018-09-12T09:48:01.159Z,24.50
2018-09-12T09:50:29.162Z,24.60
2018-09-12T09:52:57.119Z,24.60
2018-09-12T09:55:25.073Z,24.70
2018-09-12T09:57:53.008Z,24.80
2018-09-12T10:00:26.439Z,24.80
2018-09-12T10:03:00.491Z,24.80
2018-09-12T10:05:34.072Z,24.70
2018-09-12T10:08:07.702Z,24.80
2018-09-12T10:10:35.670Z,24.90
2018-09-12T10:13:03.870Z,24.90
2018-09-12T10:15:31.886Z,25.00
2018-09-12T10:18:00.064Z,25.00
2018-09-12T10:20:28.013Z,25.00
2018-09-12T10:22:55.952Z,25.10
2018-09-12T10:25:24.107Z,25.10
2018-09-12T10:27:52.064Z,25.10
2018-09-12T10:30:20.053Z,25.10
2018-09-12T10:32:48.355Z,25.10
2018-09-12T10:35:16.334Z,25.00
2018-09-12T10:37:44.314Z,25.10
2018-09-12T10:40:12.325Z,25.20
2018-09-12T10:42:40.286Z,25.20
2018-09-12T10:45:08.384Z,25.30
2018-09-12T10:47:36.342Z,25.30
2018-09-12T10:50:04.452Z,25.30
2018-09-12T10:52:32.497Z,25.30
2018-09-12T10:55:00.568Z,25.30
2018-09-12T10:57:28.582Z,25.30
2018-09-12T10:59:56.582Z,25.30
2018-09-12T11:02:24.580Z,25.40
2018-09-12T11:04:52.673Z,25.40
2018-09-12T11:07:20.669Z,25.40
2018-09-12T11:09:48.852Z,25.40
2018-09-12T11:12:16.789Z,25.40
2018-09-12T11:14:44.772Z,25.40
2018-09-12T11:17:12.795Z,25.30
2018-09-12T11:19:40.797Z,25.30
2018-09-12T11:22:08.779Z,25.40
2018-09-12T11:24:36.725Z,25.40
2018-09-12T11:27:04.713Z,25.40
2018-09-12T11:29:32.662Z,25.50
2018-09-12T11:32:00.644Z,25.50
2018-09-12T11:34:28.833Z,25.60
2018-09-12T11:36:56.821Z,25.60
2018-09-12T11:39:24.768Z,25.60
2018-09-12T11:41:52.744Z,25.60
2018-09-12T11:44:20.674Z,25.60
2018-09-12T11:46:48.661Z,25.60
2018-09-12T11:49:16.698Z,25.60
2018-09-12T11:51:44.798Z,25.70
2018-09-12T11:54:12.827Z,25.70
2018-09-12T11:56:40.801Z,25.70
2018-09-12T11:59:08.817Z,25.70
2018-09-12T12:01:36.771Z,25.70
2018-09-12T12:04:04.774Z,25.80
2018-09-12T12:06:32.723Z,25.80
2018-09-12T12:09:00.764Z,25.80
2018-09-12T12:11:28.754Z,25.90
2018-09-12T12:13:56.966Z,25.90
2018-09-12T12:16:24.950Z,26.00
2018-09-12T12:18:52.897Z,26.10
2018-09-12T12:21:24.352Z,26.10
2018-09-12T12:23:52.319Z,26.20
2018-09-12T12:26:20.323Z,26.20
2018-09-12T12:28:49.029Z,26.20
2018-09-12T12:31:17.003Z,26.20
2018-09-12T12:33:44.941Z,26.30
2018-09-12T12:36:12.936Z,26.30
2018-09-12T12:38:40.880Z,26.30
2018-09-12T12:41:09.155Z,26.30
2018-09-12T12:43:37.162Z,26.30
2018-09-12T12:46:05.136Z,26.30
2018-09-12T12:48:33.093Z,26.30
2018-09-12T12:51:01.215Z,26.40
2018-09-12T12:53:29.168Z,26.40
2018-09-12T12:55:57.112Z,26.40
2018-09-12T12:58:25.246Z,26.50
2018-09-12T13:00:53.180Z,26.50
2018-09-12T13:03:21.251Z,26.60
2018-09-12T13:05:49.232Z,26.50
2018-09-12T13:08:17.256Z,26.40
2018-09-12T13:10:45.230Z,26.40
2018-09-12T13:13:13.239Z,26.40
2018-09-12T13:15:41.434Z,26.40
2018-09-12T13:18:09.491Z,26.40
2018-09-12T13:20:37.499Z,26.20
2018-09-12T13:23:06.882Z,26.20
2018-09-12T13:25:34.828Z,26.10
2018-09-12T13:28:02.828Z,26.10
2018-09-12T13:30:30.952Z,26.20
2018-09-12T13:32:58.959Z,26.10
2018-09-12T13:35:26.902Z,26.10
2018-09-12T13:37:54.899Z,26.10
2018-09-12T13:40:22.863Z,26.10
2018-09-12T13:42:50.879Z,26.20
2018-09-12T13:45:18.817Z,26.20
2018-09-12T13:47:46.806Z,26.20
2018-09-12T13:50:16.415Z,26.20
2018-09-12T13:52:44.802Z,26.10
2018-09-12T13:55:12.807Z,26.20
2018-09-12T13:57:40.904Z,26.20
2018-09-12T14:00:08.979Z,26.20
2018-09-12T14:02:37.092Z,26.10
2018-09-12T14:05:05.123Z,26.10
2018-09-12T14:07:33.606Z,26.10
2018-09-12T14:10:01.687Z,26.20
2018-09-12T14:12:29.725Z,26.20
2018-09-12T14:14:57.762Z,26.30
2018-09-12T14:17:26.562Z,26.40
2018-09-12T14:19:54.543Z,26.30
2018-09-12T14:22:22.568Z,26.30
2018-09-12T14:24:50.628Z,26.20
2018-09-12T14:27:18.574Z,26.10
2018-09-12T14:29:46.535Z,26.00
2018-09-12T14:32:14.619Z,26.00
2018-09-12T14:34:42.580Z,26.10
2018-09-12T14:37:10.525Z,26.10
2018-09-12T14:39:38.500Z,26.10
2018-09-12T14:42:06.582Z,26.10
2018-09-12T14:44:34.460Z,26.00
2018-09-12T14:47:02.534Z,26.00
2018-09-12T14:49:30.472Z,26.00
2018-09-12T14:51:58.512Z,26.00
2018-09-12T14:54:26.479Z,25.90
2018-09-12T14:56:54.435Z,25.80
2018-09-12T14:59:22.447Z,25.80
2018-09-12T15:01:50.570Z,25.80
2018-09-12T15:04:18.512Z,25.80
2018-09-12T15:06:46.459Z,25.80
2018-09-12T15:09:21.824Z,25.80
2018-09-12T15:11:49.793Z,25.70
2018-09-12T15:14:17.802Z,25.70
2018-09-12T15:16:45.784Z,25.60
2018-09-12T15:19:13.798Z,25.60
2018-09-12T15:21:41.828Z,25.50
2018-09-12T15:24:09.799Z,25.50
2018-09-12T15:26:37.738Z,25.50
2018-09-12T15:29:05.698Z,25.50
2018-09-12T15:31:34.583Z,25.40
2018-09-12T15:34:02.558Z,25.30
2018-09-12T15:36:30.619Z,25.20
2018-09-12T15:38:58.626Z,25.20
2018-09-12T15:41:26.648Z,25.20
2018-09-12T15:43:54.614Z,25.00
2018-09-12T15:46:22.522Z,25.10
2018-09-12T15:48:50.560Z,25.10
2018-09-12T15:51:18.531Z,25.00
2018-09-12T15:53:46.518Z,24.90
2018-09-12T15:56:14.804Z,24.90
2018-09-12T15:58:42.996Z,24.90
2018-09-12T16:01:10.944Z,25.00
2018-09-12T16:03:38.893Z,24.90
2018-09-12T16:06:06.910Z,24.70
2018-09-12T16:08:34.885Z,24.70
2018-09-12T16:11:02.903Z,24.70
2018-09-12T16:13:30.849Z,24.40
2018-09-12T16:15:58.835Z,24.40
2018-09-12T16:18:26.789Z,24.50
2018-09-12T16:20:54.763Z,24.50
2018-09-12T16:23:22.872Z,24.40
2018-09-12T16:25:50.861Z,24.30
2018-09-12T16:28:18.885Z,24.10
2018-09-12T16:30:46.799Z,24.10
2018-09-12T16:33:14.894Z,24.00
2018-09-12T16:35:42.859Z,24.00
2018-09-12T16:38:10.843Z,23.90
2018-09-12T16:40:42.584Z,23.80
2018-09-12T16:43:10.545Z,23.60
2018-09-12T16:45:38.735Z,23.50
2018-09-12T16:48:06.682Z,23.50
2018-09-12T16:50:34.724Z,23.30
2018-09-12T16:53:02.885Z,23.20
2018-09-12T16:55:30.871Z,23.00
2018-09-12T16:57:58.887Z,23.10
2018-09-12T17:00:26.929Z,23.00
2018-09-12T17:02:55.016Z,23.00
2018-09-12T17:05:22.939Z,22.90
2018-09-12T17:07:50.895Z,22.90
2018-09-12T17:10:18.850Z,22.80
2018-09-12T17:12:46.800Z,22.60
2018-09-12T17:15:14.827Z,22.70
2018-09-12T17:17:42.784Z,22.70
2018-09-12T17:20:10.764Z,22.60
2018-09-12T17:22:38.887Z,22.50
2018-09-12T17:25:06.854Z,22.50
2018-09-12T17:27:34.819Z,22.40
2018-09-12T17:30:02.834Z,22.50
2018-09-12T17:32:30.879Z,22.50
2018-09-12T17:34:58.831Z,22.40
2018-09-12T17:37:27.367Z,22.40
2018-09-12T17:39:55.984Z,22.50
2018-09-12T17:42:23.935Z,22.40
2018-09-12T17:44:51.893Z,22.20
2018-09-12T17:47:19.948Z,22.10
2018-09-12T17:49:47.936Z,22.10
2018-09-12T17:52:15.957Z,22.00
2018-09-12T17:54:44.130Z,22.00
2018-09-12T17:57:12.163Z,22.00
2018-09-12T17:59:40.435Z,21.90
2018-09-12T18:02:08.406Z,21.90
2018-09-12T18:04:36.611Z,21.70
2018-09-12T18:07:04.669Z,21.60
2018-09-12T18:09:32.607Z,21.70
2018-09-12T18:12:00.831Z,21.70
2018-09-12T18:14:29.104Z,21.80
2018-09-12T18:16:57.094Z,21.70
2018-09-12T18:19:25.104Z,21.60
2018-09-12T18:21:56.799Z,21.70
2018-09-12T18:24:24.829Z,21.70
2018-09-12T18:26:52.832Z,21.50
2018-09-12T18:29:21.184Z,21.30
2018-09-12T18:31:49.176Z,21.20
2018-09-12T18:34:17.607Z,21.20
2018-09-12T18:36:45.572Z,21.20
2018-09-12T18:39:13.561Z,21.20
2018-09-12T18:41:41.538Z,21.30
2018-09-12T18:44:09.521Z,21.30
2018-09-12T18:46:37.493Z,21.10
2018-09-12T18:49:05.461Z,21.10
2018-09-12T18:51:34.337Z,21.10
2018-09-12T18:54:02.465Z,21.00
2018-09-12T18:56:30.359Z,20.90
2018-09-12T18:58:58.364Z,21.00
2018-09-12T19:01:26.335Z,21.00
2018-09-12T19:03:54.293Z,21.00
2018-09-12T19:06:23.019Z,21.00
2018-09-12T19:08:51.032Z,20.90
2018-09-12T19:11:19.033Z,20.80
2018-09-12T19:13:47.286Z,20.80
2018-09-12T19:16:15.273Z,20.90
2018-09-12T19:18:43.499Z,20.90
2018-09-12T19:21:14.596Z,20.80
2018-09-12T19:23:43.022Z,20.90
2018-09-12T19:26:11.354Z,20.80
2018-09-12T19:28:39.525Z,20.50
2018-09-12T19:31:07.594Z,20.50
2018-09-12T19:33:36.126Z,20.40
2018-09-12T19:36:05.277Z,20.30
2018-09-12T19:38:33.770Z,20.30
2018-09-12T19:41:01.800Z,20.40
2018-09-12T19:43:32.077Z,20.40
2018-09-12T19:46:00.185Z,20.40
2018-09-12T19:48:28.185Z,20.40
2018-09-12T19:50:56.184Z,20.50
2018-09-12T19:53:24.178Z,20.50
2018-09-12T19:55:52.179Z,20.50
2018-09-12T19:58:20.154Z,20.40
2018-09-12T20:00:48.378Z,20.40
2018-09-12T20:03:16.386Z,20.30
2018-09-12T20:05:44.319Z,20.30
2018-09-12T20:08:12.276Z,20.30
2018-09-12T20:10:40.350Z,20.20
2018-09-12T20:13:08.306Z,20.10
2018-09-12T20:15:36.267Z,20.20
2018-09-12T20:18:04.314Z,20.10
2018-09-12T20:20:32.282Z,20.10
2018-09-12T20:23:00.390Z,20.10
2018-09-12T20:25:28.364Z,20.10
2018-09-12T20:27:56.398Z,20.20
2018-09-12T20:30:24.411Z,20.20
2018-09-12T20:32:52.476Z,20.10
2018-09-12T20:35:20.548Z,20.00
2018-09-12T20:37:48.631Z,19.80
2018-09-12T20:40:16.592Z,19.80
2018-09-12T20:42:44.574Z,19.90
2018-09-12T20:45:12.619Z,19.90
2018-09-12T20:47:40.568Z,20.10
2018-09-12T20:50:08.552Z,20.10
2018-09-12T20:52:36.510Z,20.00
2018-09-12T20:55:04.479Z,19.80
2018-09-12T20:57:32.470Z,19.90
2018-09-12T21:00:00.567Z,19.80
2018-09-12T21:02:28.535Z,19.90
2018-09-12T21:04:56.519Z,20.00
2018-09-12T21:07:24.760Z,19.90
2018-09-12T21:09:52.823Z,19.90
2018-09-12T21:12:21.021Z,19.90
2018-09-12T21:14:49.093Z,20.00
2018-09-12T21:17:17.059Z,20.00
2018-09-12T21:19:45.224Z,19.90
2018-09-12T21:22:13.187Z,19.90
2018-09-12T21:24:41.116Z,20.00
2018-09-12T21:27:09.078Z,20.00
2018-09-12T21:29:37.028Z,20.00
2018-09-12T21:32:05.263Z,19.90
2018-09-12T21:34:33.234Z,19.90
2018-09-12T21:37:01.224Z,19.90
2018-09-12T21:39:29.183Z,20.00
2018-09-12T21:41:57.132Z,20.00
2018-09-12T21:44:25.085Z,19.80
2018-09-12T21:46:53.045Z,19.80
2018-09-12T21:49:21.110Z,19.60
2018-09-12T21:51:49.045Z,19.60
2018-09-12T21:54:17.021Z,19.60
2018-09-12T21:56:44.980Z,19.50
2018-09-12T21:59:12.972Z,19.60
2018-09-12T22:01:40.935Z,19.60
2018-09-12T22:04:08.904Z,19.60
2018-09-12T22:06:36.923Z,19.80
2018-09-12T22:09:08.121Z,19.80
2018-09-12T22:11:36.114Z,19.90
2018-09-12T22:14:04.079Z,20.00
2018-09-12T22:16:32.104Z,20.00
2018-09-12T22:19:00.195Z,20.00
2018-09-12T22:21:28.277Z,19.90
2018-09-12T22:23:56.266Z,20.00
2018-09-12T22:26:24.271Z,19.90
2018-09-12T22:28:52.223Z,19.90
2018-09-12T22:31:23.764Z,20.00
2018-09-12T22:33:51.767Z,20.00
2018-09-12T22:36:26.026Z,20.00
2018-09-12T22:38:53.956Z,20.00
2018-09-12T22:41:21.907Z,19.90
2018-09-12T22:43:49.978Z,19.80
2018-09-12T22:46:17.968Z,19.90
2018-09-12T22:48:45.929Z,19.90
2018-09-12T22:51:13.938Z,20.00
2018-09-12T22:53:41.937Z,20.00
2018-09-12T22:56:10.158Z,20.00
2018-09-12T22:58:38.115Z,20.00
2018-09-12T23:01:06.096Z,19.90
2018-09-12T23:03:34.038Z,19.70
2018-09-12T23:06:01.976Z,19.60
2018-09-12T23:08:29.922Z,19.40
2018-09-12T23:10:57.890Z,19.30
2018-09-12T23:13:25.871Z,19.30
2018-09-12T23:15:53.818Z,19.40
2018-09-12T23:18:21.799Z,19.50
2018-09-12T23:20:49.764Z,19.60
2018-09-12T23:23:17.780Z,19.60
2018-09-12T23:25:45.740Z,19.50
2018-09-12T23:28:13.762Z,19.50
2018-09-12T23:30:41.707Z,19.50
2018-09-12T23:33:09.657Z,19.50
2018-09-12T23:35:37.611Z,19.40
2018-09-12T23:38:05.589Z,19.30
2018-09-12T23:40:33.613Z,19.30
2018-09-12T23:43:01.553Z,19.30
2018-09-12T23:45:29.544Z,19.30
2018-09-12T23:47:57.508Z,19.40
2018-09-12T23:50:25.498Z,19.40
2018-09-12T23:52:53.497Z,19.50
2018-09-12T23:55:21.732Z,19.50
2018-09-12T23:57:49.715Z,19.50
